createdAt,value
2023-03-28T00:01:07.387Z,64.35
2023-03-28T00:03:39.778Z,63.95
2023-03-28T00:06:09.875Z,64.35
2023-03-28T00:08:39.401Z,64.56
2023-03-28T00:11:07.824Z,64.32
2023-03-28T00:13:35.125Z,64.58
2023-03-28T00:16:03.953Z,64.78
2023-03-28T00:18:30.774Z,64.46
2023-03-28T00:20:57.470Z,64.87
2023-03-28T00:23:24.861Z,64.96
2023-03-28T00:25:51.459Z,64.55
2023-03-28T00:28:19.143Z,64.62
2023-03-28T00:30:46.039Z,64.54
2023-03-28T00:33:12.663Z,64.47
2023-03-28T00:35:39.336Z,64.44
2023-03-28T00:38:05.971Z,64.27
2023-03-28T00:40:36.066Z,64.27
2023-03-28T00:43:02.717Z,63.82
2023-03-28T00:45:29.460Z,63.89
2023-03-28T00:48:02.186Z,64.60
2023-03-28T00:50:31.555Z,63.84
2023-03-28T00:53:01.877Z,63.58
2023-03-28T00:55:37.813Z,63.67
2023-03-28T00:58:08.110Z,63.85
2023-03-28T01:00:35.112Z,64.01
2023-03-28T01:03:03.202Z,63.31
2023-03-28T01:05:32.285Z,63.44
2023-03-28T01:08:03.775Z,63.31
2023-03-28T01:10:31.350Z,63.56
2023-03-28T01:12:58.798Z,62.87
2023-03-28T01:15:25.855Z,63.18
2023-03-28T01:17:58.164Z,63.74
2023-03-28T01:20:30.960Z,63.08
2023-03-28T01:23:11.870Z,62.77
2023-03-28T01:25:57.303Z,63.35
2023-03-28T01:28:24.747Z,63.03
2023-03-28T01:30:54.601Z,63.17
2023-03-28T01:33:56.969Z,62.87
2023-03-28T01:36:36.562Z,62.48
2023-03-28T01:39:06.022Z,62.52
2023-03-28T01:41:39.474Z,62.53
2023-03-28T01:44:10.364Z,62.00
2023-03-28T01:46:39.084Z,61.89
2023-03-28T01:49:08.477Z,61.84
2023-03-28T01:51:54.209Z,61.77
2023-03-28T01:54:21.323Z,62.16
2023-03-28T01:56:51.666Z,61.92
2023-03-28T01:59:41.795Z,62.16
2023-03-28T02:02:55.880Z,61.89
2023-03-28T02:05:28.088Z,61.84
2023-03-28T02:07:55.900Z,62.37
2023-03-28T02:10:40.470Z,62.05
2023-03-28T02:13:45.174Z,62.40
2023-03-28T02:16:32.288Z,62.73
2023-03-28T02:19:18.295Z,62.65
2023-03-28T02:22:24.325Z,62.61
2023-03-28T02:25:11.436Z,63.06
2023-03-28T02:28:05.446Z,63.24
2023-03-28T02:30:51.782Z,64.26
2023-03-28T02:33:50.046Z,64.17
2023-03-28T02:36:31.128Z,64.31
2023-03-28T02:39:36.528Z,64.35
2023-03-28T02:42:20.010Z,63.75
2023-03-28T02:45:05.786Z,63.55
2023-03-28T02:47:39.096Z,63.79
2023-03-28T02:50:28.216Z,63.35
2023-03-28T02:52:58.641Z,63.13
2023-03-28T02:55:31.045Z,62.98
2023-03-28T02:58:01.966Z,63.29
2023-03-28T03:00:29.737Z,63.60
2023-03-28T03:02:57.077Z,63.50
2023-03-28T03:05:23.680Z,63.73
2023-03-28T03:07:50.510Z,63.97
2023-03-28T03:10:17.544Z,64.11
2023-03-28T03:12:46.400Z,64.73
2023-03-28T03:15:17.014Z,64.51
2023-03-28T03:17:54.911Z,64.93
2023-03-28T03:20:27.566Z,65.14
2023-03-28T03:22:54.603Z,65.28
2023-03-28T03:25:21.689Z,65.46
2023-03-28T03:28:00.330Z,65.40
2023-03-28T03:30:27.530Z,65.76
2023-03-28T03:33:26.400Z,66.07
2023-03-28T03:35:59.234Z,66.08
2023-03-28T03:38:26.277Z,66.18
2023-03-28T03:40:53.309Z,65.77
2023-03-28T03:43:20.740Z,65.81
2023-03-28T03:45:47.446Z,66.07
2023-03-28T03:48:14.286Z,66.54
2023-03-28T03:50:41.811Z,66.30
2023-03-28T03:53:14.281Z,66.48
2023-03-28T03:55:48.755Z,66.49
2023-03-28T03:58:15.770Z,66.29
2023-03-28T04:00:44.861Z,66.01
2023-03-28T04:03:26.969Z,65.78
2023-03-28T04:05:55.172Z,65.91
2023-03-28T04:08:22.036Z,65.94
2023-03-28T04:10:48.638Z,65.77
2023-03-28T04:13:15.742Z,65.67
2023-03-28T04:15:46.070Z,65.35
2023-03-28T04:18:22.446Z,65.28
2023-03-28T04:20:55.270Z,65.09
2023-03-28T04:23:54.921Z,64.77
2023-03-28T04:26:28.828Z,64.59
2023-03-28T04:29:05.303Z,64.26
2023-03-28T04:31:36.038Z,64.43
2023-03-28T04:34:14.654Z,63.76
2023-03-28T04:37:01.954Z,64.11
2023-03-28T04:39:31.838Z,63.81
2023-03-28T04:42:24.561Z,63.14
2023-03-28T04:45:11.610Z,62.34
2023-03-28T04:47:40.978Z,61.99
2023-03-28T04:50:14.876Z,61.50
2023-03-28T04:52:41.496Z,60.98
2023-03-28T04:55:08.457Z,60.77
2023-03-28T04:57:37.192Z,60.02
2023-03-28T05:00:10.543Z,58.82
2023-03-28T05:03:04.762Z,58.83
2023-03-28T05:05:37.218Z,59.46
2023-03-28T05:08:08.870Z,59.52
2023-03-28T05:10:35.867Z,59.43
2023-03-28T05:13:05.837Z,58.81
2023-03-28T05:15:39.907Z,55.74
2023-03-28T05:18:41.898Z,53.43
2023-03-28T05:21:08.816Z,51.56
2023-03-28T05:23:35.649Z,50.51
2023-03-28T05:26:06.880Z,50.13
2023-03-28T05:28:34.465Z,50.19
2023-03-28T05:31:01.512Z,49.35
2023-03-28T05:33:30.281Z,49.27
2023-03-28T05:35:56.957Z,48.89
2023-03-28T05:38:23.754Z,47.90
2023-03-28T05:40:56.405Z,46.99
2023-03-28T05:43:23.127Z,47.43
2023-03-28T05:45:50.487Z,45.65
2023-03-28T05:48:19.888Z,46.00
2023-03-28T05:50:48.561Z,45.57
2023-03-28T05:53:15.923Z,45.89
2023-03-28T05:55:42.895Z,45.98
2023-03-28T05:58:09.596Z,45.55
2023-03-28T06:00:42.725Z,43.68
2023-03-28T06:03:09.930Z,43.98
2023-03-28T06:05:44.805Z,44.88
2023-03-28T06:08:22.960Z,44.02
2023-03-28T06:10:49.987Z,44.07
2023-03-28T06:13:20.959Z,44.44
2023-03-28T06:15:48.433Z,43.52
2023-03-28T06:18:16.726Z,41.05
2023-03-28T06:20:45.855Z,41.22
2023-03-28T06:23:12.714Z,41.46
2023-03-28T06:25:39.399Z,42.18
2023-03-28T06:28:06.294Z,41.86
2023-03-28T06:30:40.409Z,40.57
2023-03-28T06:33:08.554Z,39.93
2023-03-28T06:35:35.311Z,40.60
2023-03-28T06:38:02.102Z,40.31
2023-03-28T06:40:29.292Z,40.32
2023-03-28T06:42:56.866Z,41.15
2023-03-28T06:45:49.816Z,40.84
2023-03-28T06:48:17.661Z,39.66
2023-03-28T06:51:05.867Z,40.28
2023-03-28T06:53:33.394Z,40.82
2023-03-28T06:56:00.390Z,43.07
2023-03-28T06:58:29.922Z,44.91
2023-03-28T07:01:02.523Z,45.69
2023-03-28T07:03:38.218Z,44.67
2023-03-28T07:06:06.863Z,43.72
2023-03-28T07:08:33.782Z,43.63
2023-03-28T07:11:00.545Z,43.38
2023-03-28T07:13:28.365Z,43.59
2023-03-28T07:16:13.883Z,42.51
2023-03-28T07:18:41.730Z,41.86
2023-03-28T07:21:19.650Z,41.69
2023-03-28T07:23:46.409Z,42.72
2023-03-28T07:26:17.572Z,43.42
2023-03-28T07:28:45.588Z,43.62
2023-03-28T07:31:12.384Z,42.89
2023-03-28T07:33:39.457Z,42.81
2023-03-28T07:36:12.261Z,43.13
2023-03-28T07:38:39.340Z,42.83
2023-03-28T07:41:06.385Z,43.35
2023-03-28T07:43:33.195Z,44.12
2023-03-28T07:46:01.002Z,44.95
2023-03-28T07:48:28.026Z,45.76
2023-03-28T07:50:55.089Z,44.56
2023-03-28T07:53:22.057Z,45.01
2023-03-28T07:55:54.980Z,45.61
2023-03-28T07:58:28.609Z,46.08
2023-03-28T08:01:04.354Z,45.69
2023-03-28T08:03:31.365Z,45.24
2023-03-28T08:06:02.701Z,45.80
2023-03-28T08:08:30.202Z,46.07
2023-03-28T08:11:19.702Z,46.01
2023-03-28T08:13:46.361Z,45.43
2023-03-28T08:16:20.562Z,44.91
2023-03-28T08:18:54.400Z,43.64
2023-03-28T08:21:31.114Z,43.78
2023-03-28T08:23:58.282Z,43.09
2023-03-28T08:26:48.645Z,44.72
2023-03-28T08:29:16.414Z,46.17
2023-03-28T08:31:44.006Z,47.70
2023-03-28T08:34:13.372Z,48.24
2023-03-28T08:36:41.931Z,47.07
2023-03-28T08:39:20.319Z,47.36
2023-03-28T08:42:06.212Z,47.66
2023-03-28T08:44:34.438Z,47.73
2023-03-28T08:47:09.921Z,47.10
2023-03-28T08:49:43.976Z,45.61
2023-03-28T08:52:13.146Z,44.35
2023-03-28T08:54:39.712Z,43.84
2023-03-28T08:57:12.085Z,43.55
2023-03-28T08:59:48.326Z,43.40
2023-03-28T09:02:19.688Z,43.64
2023-03-28T09:04:47.862Z,44.07
2023-03-28T09:07:26.847Z,44.34
2023-03-28T09:10:12.418Z,45.67
2023-03-28T09:13:00.202Z,59.90
2023-03-28T09:15:42.307Z,69.81
2023-03-28T09:18:19.843Z,76.29
2023-03-28T09:20:55.873Z,79.24
2023-03-28T09:23:38.061Z,79.96
2023-03-28T09:26:18.998Z,79.27
2023-03-28T09:28:57.306Z,77.25
2023-03-28T09:31:27.827Z,74.92
2023-03-28T09:34:00.321Z,72.53
2023-03-28T09:36:49.903Z,67.92
2023-03-28T09:39:35.024Z,67.26
2023-03-28T09:42:19.979Z,63.96
2023-03-28T09:45:06.772Z,59.24
2023-03-28T09:47:51.606Z,59.48
2023-03-28T09:50:21.978Z,59.28
2023-03-28T09:52:56.432Z,57.91
2023-03-28T09:55:27.884Z,55.81
2023-03-28T09:58:02.036Z,54.42
2023-03-28T10:00:29.700Z,52.12
2023-03-28T10:03:29.146Z,52.77
2023-03-28T10:05:57.224Z,52.77
2023-03-28T10:08:36.960Z,49.84
2023-03-28T10:11:18.256Z,51.74
2023-03-28T10:13:49.089Z,52.95
2023-03-28T10:16:20.025Z,47.97
2023-03-28T10:18:54.268Z,47.46
2023-03-28T10:21:50.180Z,45.82
2023-03-28T10:24:22.255Z,44.82
2023-03-28T10:27:16.781Z,43.34
2023-03-28T10:29:44.212Z,42.82
2023-03-28T10:32:14.074Z,41.20
2023-03-28T10:34:47.339Z,41.75
2023-03-28T10:37:22.589Z,43.69
2023-03-28T10:40:00.482Z,42.71
2023-03-28T10:42:53.378Z,41.88
2023-03-28T10:45:42.181Z,42.81
2023-03-28T10:48:20.519Z,41.61
2023-03-28T10:50:54.452Z,40.47
2023-03-28T10:53:37.294Z,39.13
2023-03-28T10:56:11.266Z,38.94
2023-03-28T10:58:48.310Z,39.54
2023-03-28T11:01:25.030Z,37.96
2023-03-28T11:04:04.658Z,37.88
2023-03-28T11:06:38.218Z,37.21
2023-03-28T11:09:11.311Z,35.54
2023-03-28T11:11:57.863Z,36.75
2023-03-28T11:14:32.644Z,36.03
2023-03-28T11:17:05.346Z,36.82
2023-03-28T11:20:19.261Z,36.29
2023-03-28T11:23:02.739Z,36.71
2023-03-28T11:25:42.807Z,37.04
2023-03-28T11:28:49.003Z,34.83
2023-03-28T11:31:25.324Z,33.68
2023-03-28T11:34:11.871Z,34.41
2023-03-28T11:36:48.975Z,34.39
2023-03-28T11:39:27.030Z,34.77
2023-03-28T11:41:56.365Z,35.36
2023-03-28T11:44:41.537Z,34.82
2023-03-28T11:47:16.244Z,32.00
2023-03-28T11:49:57.482Z,31.46
2023-03-28T11:52:47.742Z,31.21
2023-03-28T11:55:17.666Z,31.50
2023-03-28T11:57:53.351Z,32.17
2023-03-28T12:00:34.672Z,33.77
2023-03-28T12:03:30.487Z,35.28
2023-03-28T12:06:08.360Z,33.96
2023-03-28T12:08:42.916Z,35.28
2023-03-28T12:11:17.658Z,33.71
2023-03-28T12:14:12.492Z,32.53
2023-03-28T12:16:48.199Z,32.96
2023-03-28T12:19:23.281Z,34.32
2023-03-28T12:21:59.616Z,32.81
2023-03-28T12:24:42.673Z,33.29
2023-03-28T12:27:35.606Z,33.61
2023-03-28T12:30:16.440Z,33.45
2023-03-28T12:32:43.371Z,33.52
2023-03-28T12:35:36.568Z,32.42
2023-03-28T12:38:22.779Z,32.70
2023-03-28T12:41:07.835Z,33.25
2023-03-28T12:43:53.158Z,32.64
2023-03-28T12:46:37.142Z,33.25
2023-03-28T12:49:12.542Z,33.29
2023-03-28T12:51:40.739Z,33.19
2023-03-28T12:54:16.447Z,34.14
2023-03-28T12:56:47.857Z,33.24
2023-03-28T12:59:33.555Z,32.43
2023-03-28T13:02:02.743Z,31.19
2023-03-28T13:04:44.418Z,32.15
2023-03-28T13:07:24.671Z,32.56
2023-03-28T13:10:04.757Z,32.77
2023-03-28T13:12:45.824Z,32.67
2023-03-28T13:15:15.671Z,33.39
2023-03-28T13:17:45.830Z,33.11
2023-03-28T13:20:15.648Z,33.66
2023-03-28T13:22:58.527Z,33.58
2023-03-28T13:25:27.485Z,33.47
2023-03-28T13:28:01.695Z,33.24
2023-03-28T13:30:30.032Z,34.06
2023-03-28T13:32:58.356Z,33.26
2023-03-28T13:35:45.893Z,33.94
2023-03-28T13:38:23.019Z,33.92
2023-03-28T13:40:54.506Z,34.24
2023-03-28T13:43:23.839Z,33.23
2023-03-28T13:45:51.917Z,33.61
2023-03-28T13:48:18.692Z,32.95
2023-03-28T13:50:46.066Z,31.69
2023-03-28T13:53:12.721Z,31.90
2023-03-28T13:55:39.622Z,31.99
2023-03-28T13:58:06.527Z,32.24
2023-03-28T14:00:33.098Z,33.34
2023-03-28T14:03:04.583Z,33.97
2023-03-28T14:05:32.815Z,33.27
2023-03-28T14:08:19.102Z,34.53
2023-03-28T14:10:46.581Z,34.56
2023-03-28T14:13:15.102Z,33.55
2023-03-28T14:15:43.546Z,34.09
2023-03-28T14:18:27.609Z,33.84
2023-03-28T14:20:56.000Z,33.54
2023-03-28T14:23:30.656Z,33.66
2023-03-28T14:25:58.389Z,34.43
2023-03-28T14:28:28.171Z,33.40
2023-03-28T14:30:55.440Z,33.75
2023-03-28T14:33:22.879Z,34.03
2023-03-28T14:36:03.183Z,34.02
2023-03-28T14:38:31.209Z,34.30
2023-03-28T14:41:13.232Z,34.29
2023-03-28T14:43:40.178Z,33.87
2023-03-28T14:46:08.361Z,33.34
2023-03-28T14:48:36.957Z,33.24
2023-03-28T14:51:05.917Z,33.18
2023-03-28T14:53:41.278Z,33.92
2023-03-28T14:56:12.727Z,33.05
2023-03-28T14:58:40.297Z,33.08
2023-03-28T15:01:07.795Z,33.87
2023-03-28T15:03:39.054Z,33.34
2023-03-28T15:06:07.025Z,33.38
2023-03-28T15:08:36.131Z,32.96
2023-03-28T15:11:05.495Z,33.45
2023-03-28T15:13:35.146Z,33.31
2023-03-28T15:16:02.350Z,34.06
2023-03-28T15:18:30.149Z,33.72
2023-03-28T15:20:59.026Z,33.65
2023-03-28T15:23:29.216Z,34.74
2023-03-28T15:25:56.659Z,34.00
2023-03-28T15:28:27.248Z,34.03
2023-03-28T15:30:56.609Z,34.49
2023-03-28T15:33:24.751Z,34.67
2023-03-28T15:36:03.674Z,34.47
2023-03-28T15:38:30.289Z,33.96
2023-03-28T15:41:23.916Z,32.82
2023-03-28T15:44:09.367Z,33.26
2023-03-28T15:46:36.353Z,33.62
2023-03-28T15:49:05.168Z,33.47
2023-03-28T15:51:37.778Z,33.77
2023-03-28T15:54:04.897Z,32.79
2023-03-28T15:56:33.989Z,33.66
2023-03-28T15:59:09.954Z,34.16
2023-03-28T16:01:36.687Z,33.95
2023-03-28T16:04:27.853Z,34.42
2023-03-28T16:07:09.384Z,33.44
2023-03-28T16:09:38.391Z,33.90
2023-03-28T16:12:05.060Z,34.24
2023-03-28T16:14:49.014Z,34.16
2023-03-28T16:17:43.296Z,34.23
2023-03-28T16:20:19.915Z,33.88
2023-03-28T16:22:47.151Z,33.80
2023-03-28T16:25:14.184Z,33.93
2023-03-28T16:27:42.447Z,34.04
2023-03-28T16:30:26.564Z,34.19
2023-03-28T16:32:53.417Z,33.63
2023-03-28T16:35:20.019Z,34.19
2023-03-28T16:37:47.396Z,34.54
2023-03-28T16:40:14.379Z,34.57
2023-03-28T16:42:41.272Z,34.07
2023-03-28T16:45:11.432Z,33.91
2023-03-28T16:47:38.878Z,33.65
2023-03-28T16:50:06.590Z,33.79
2023-03-28T16:52:38.749Z,33.90
2023-03-28T16:55:09.726Z,33.84
2023-03-28T16:57:36.511Z,33.84
2023-03-28T17:00:05.237Z,34.86
2023-03-28T17:02:31.973Z,34.88
2023-03-28T17:04:58.629Z,34.97
2023-03-28T17:07:25.665Z,34.83
2023-03-28T17:09:52.453Z,35.11
2023-03-28T17:12:20.535Z,35.70
2023-03-28T17:14:47.314Z,35.57
2023-03-28T17:17:14.045Z,35.94
2023-03-28T17:19:40.971Z,35.63
2023-03-28T17:22:07.602Z,36.14
2023-03-28T17:24:34.298Z,35.94
2023-03-28T17:27:01.264Z,36.07
2023-03-28T17:29:28.587Z,36.43
2023-03-28T17:31:55.324Z,36.28
2023-03-28T17:34:22.097Z,36.43
2023-03-28T17:36:51.050Z,36.34
2023-03-28T17:39:17.878Z,36.46
2023-03-28T17:41:44.554Z,36.48
2023-03-28T17:44:11.192Z,37.12
2023-03-28T17:46:38.756Z,37.21
2023-03-28T17:49:05.530Z,37.19
2023-03-28T17:51:32.511Z,38.08
2023-03-28T17:54:00.918Z,38.23
2023-03-28T17:56:28.031Z,38.49
2023-03-28T17:58:54.649Z,38.35
2023-03-28T18:01:22.467Z,38.25
2023-03-28T18:03:49.369Z,38.65
2023-03-28T18:06:35.849Z,38.44
2023-03-28T18:09:02.924Z,38.70
2023-03-28T18:11:29.527Z,38.45
2023-03-28T18:13:59.198Z,38.44
2023-03-28T18:16:26.797Z,38.47
2023-03-28T18:18:54.381Z,38.66
2023-03-28T18:21:21.668Z,38.71
2023-03-28T18:23:48.360Z,38.92
2023-03-28T18:26:14.993Z,38.76
2023-03-28T18:28:41.804Z,38.57
2023-03-28T18:31:16.103Z,38.91
2023-03-28T18:33:43.394Z,38.60
2023-03-28T18:36:10.729Z,39.23
2023-03-28T18:38:38.299Z,39.02
2023-03-28T18:41:06.380Z,38.95
2023-03-28T18:43:33.663Z,39.18
2023-03-28T18:46:01.188Z,39.14
2023-03-28T18:48:31.012Z,39.36
2023-03-28T18:50:58.349Z,39.55
2023-03-28T18:53:25.797Z,39.59
2023-03-28T18:55:53.132Z,39.98
2023-03-28T18:58:19.829Z,40.43
2023-03-28T19:00:47.018Z,40.92
2023-03-28T19:03:17.400Z,41.18
2023-03-28T19:05:44.441Z,41.56
2023-03-28T19:08:10.983Z,41.68
2023-03-28T19:10:37.616Z,41.81
2023-03-28T19:13:04.219Z,41.77
2023-03-28T19:15:30.792Z,42.03
2023-03-28T19:17:57.612Z,42.27
2023-03-28T19:20:24.227Z,42.22
2023-03-28T19:22:50.899Z,42.69
2023-03-28T19:25:17.551Z,42.81
2023-03-28T19:27:44.228Z,43.27
2023-03-28T19:30:11.082Z,42.89
2023-03-28T19:32:37.832Z,42.83
2023-03-28T19:35:04.700Z,42.98
2023-03-28T19:37:31.333Z,43.17
2023-03-28T19:40:01.354Z,43.38
2023-03-28T19:42:27.993Z,43.49
2023-03-28T19:44:54.753Z,43.20
2023-03-28T19:47:21.693Z,43.64
2023-03-28T19:49:49.265Z,43.17
2023-03-28T19:52:15.918Z,42.78
2023-03-28T19:54:42.684Z,43.51
2023-03-28T19:57:09.309Z,43.35
2023-03-28T19:59:36.005Z,43.27
2023-03-28T20:02:02.709Z,43.67
2023-03-28T20:04:29.392Z,44.19
2023-03-28T20:06:56.313Z,44.30
2023-03-28T20:09:24.208Z,44.57
2023-03-28T20:11:50.998Z,44.20
2023-03-28T20:14:20.229Z,44.69
2023-03-28T20:16:48.042Z,45.00
2023-03-28T20:19:14.881Z,45.23
2023-03-28T20:21:41.557Z,45.73
2023-03-28T20:24:08.599Z,45.70
2023-03-28T20:26:35.506Z,45.78
2023-03-28T20:29:02.195Z,45.43
2023-03-28T20:31:29.028Z,45.54
2023-03-28T20:33:56.333Z,45.81
2023-03-28T20:36:23.380Z,45.26
2023-03-28T20:38:50.028Z,45.38
2023-03-28T20:41:18.057Z,45.24
2023-03-28T20:43:47.116Z,45.42
2023-03-28T20:46:18.527Z,45.75
2023-03-28T20:48:46.527Z,45.78
2023-03-28T20:51:14.432Z,45.20
2023-03-28T20:53:49.624Z,45.16
2023-03-28T20:56:17.829Z,46.04
2023-03-28T20:58:45.353Z,45.99
2023-03-28T21:01:13.139Z,45.87
2023-03-28T21:04:06.809Z,46.29
2023-03-28T21:06:35.386Z,46.50
2023-03-28T21:09:04.530Z,47.13
2023-03-28T21:11:32.396Z,46.52
2023-03-28T21:13:59.858Z,47.18
2023-03-28T21:16:26.986Z,47.55
2023-03-28T21:18:53.914Z,47.53
2023-03-28T21:21:21.280Z,48.06
2023-03-28T21:23:48.210Z,48.63
2023-03-28T21:26:16.310Z,48.95
2023-03-28T21:28:43.022Z,48.92
2023-03-28T21:31:29.171Z,49.63
2023-03-28T21:33:59.585Z,49.00
2023-03-28T21:36:27.243Z,49.17
2023-03-28T21:38:54.183Z,49.72
2023-03-28T21:41:22.588Z,49.70
2023-03-28T21:43:50.263Z,49.82
2023-03-28T21:46:18.637Z,50.41
2023-03-28T21:48:47.866Z,50.54
2023-03-28T21:51:15.571Z,50.97
2023-03-28T21:53:42.494Z,51.30
2023-03-28T21:56:11.545Z,50.79
2023-03-28T21:58:40.511Z,51.03
2023-03-28T22:01:07.796Z,52.09
2023-03-28T22:03:37.511Z,52.65
2023-03-28T22:06:04.596Z,52.68
2023-03-28T22:08:31.519Z,52.97
2023-03-28T22:11:01.368Z,52.41
2023-03-28T22:13:29.846Z,52.15
2023-03-28T22:16:00.423Z,53.20
2023-03-28T22:18:27.302Z,53.68
2023-03-28T22:20:54.023Z,52.44
2023-03-28T22:23:21.593Z,53.00
2023-03-28T22:25:48.442Z,52.63
2023-03-28T22:28:15.258Z,53.31
2023-03-28T22:30:42.435Z,53.12
2023-03-28T22:33:11.161Z,52.82
2023-03-28T22:35:38.299Z,53.54
2023-03-28T22:38:05.512Z,53.38
2023-03-28T22:40:32.313Z,53.77
2023-03-28T22:42:58.943Z,54.18
2023-03-28T22:45:26.634Z,54.99
2023-03-28T22:47:53.823Z,54.95
2023-03-28T22:50:22.147Z,54.95
2023-03-28T22:52:53.509Z,54.88
2023-03-28T22:55:22.456Z,55.24
2023-03-28T22:57:51.570Z,54.92
2023-03-28T23:00:19.160Z,55.48
2023-03-28T23:02:46.795Z,55.62
2023-03-28T23:05:13.646Z,55.85
2023-03-28T23:07:41.606Z,55.77
2023-03-28T23:10:09.223Z,56.01
2023-03-28T23:12:35.988Z,56.57
2023-03-28T23:15:02.818Z,56.69
2023-03-28T23:17:29.537Z,57.01
2023-03-28T23:19:56.156Z,57.04
2023-03-28T23:22:23.666Z,57.05
2023-03-28T23:24:50.749Z,56.99
2023-03-28T23:27:17.789Z,57.19
2023-03-28T23:29:44.341Z,57.33
2023-03-28T23:32:11.243Z,57.48
2023-03-28T23:34:37.860Z,57.75
2023-03-28T23:37:04.662Z,58.28
2023-03-28T23:39:31.253Z,58.62
2023-03-28T23:41:57.922Z,58.99
2023-03-28T23:44:24.522Z,58.80
2023-03-28T23:46:51.218Z,58.87
2023-03-28T23:49:18.114Z,59.20
2023-03-28T23:51:44.730Z,59.39
2023-03-28T23:54:12.616Z,59.84
2023-03-28T23:56:39.381Z,60.16
2023-03-28T23:59:06.726Z,60.63
